Time;durP1;ratioP1;P1;durP2;ratioP2;P2;SDS_P1;SDS_P2;PMS_P1;PMS_P2;Temp;Humidity;BMP_temperature;BMP_pressure;BME280_temperature;BME280_humidity;BME280_pressure;Samples;Min_cycle;Max_cycle;Signal;HPM_P1;HPM_P2
2024/01/12 00:00:31;;;;;;;23.52;10.63;;;3.30;99.90;;;;;;4992986;28;20030;-60
2024/01/12 00:02:56;;;;;;;24.20;8.85;;;3.20;99.90;;;;;;4996540;28;20061;-60
2024/01/12 00:05:22;;;;;;;26.63;11.05;;;3.20;99.90;;;;;;4989131;28;20034;-60
2024/01/12 00:07:48;;;;;;;26.98;10.77;;;3.20;99.90;;;;;;4985578;28;20034;-60
2024/01/12 00:10:14;;;;;;;26.33;10.20;;;3.30;99.90;;;;;;4989296;28;20037;-60
2024/01/12 00:12:39;;;;;;;27.45;10.20;;;3.30;99.90;;;;;;4990972;28;20101;-60
2024/01/12 00:15:06;;;;;;;23.85;8.77;;;3.30;99.90;;;;;;4990292;28;20030;-60
2024/01/12 00:17:32;;;;;;;24.50;9.45;;;3.30;99.90;;;;;;4990563;28;20125;-60
2024/01/12 00:19:58;;;;;;;20.58;8.70;;;3.30;99.90;;;;;;4987947;28;20113;-60
2024/01/12 00:22:24;;;;;;;26.23;9.40;;;3.30;99.90;;;;;;4985586;28;20682;-60
2024/01/12 00:24:49;;;;;;;24.50;9.40;;;3.30;99.90;;;;;;4990200;28;20121;-60
2024/01/12 00:27:15;;;;;;;23.92;9.38;;;3.30;99.90;;;;;;4987170;28;20022;-60
2024/01/12 00:29:41;;;;;;;29.30;9.75;;;3.30;99.90;;;;;;4986855;28;20131;-59
2024/01/12 00:32:07;;;;;;;24.35;9.70;;;3.30;99.90;;;;;;4990276;28;20038;-60
2024/01/12 00:34:33;;;;;;;23.23;8.88;;;3.30;99.90;;;;;;4992891;28;20022;-59
2024/01/12 00:37:00;;;;;;;19.92;8.27;;;3.30;99.90;;;;;;4986921;28;20061;-59
2024/01/12 00:39:26;;;;;;;24.15;8.70;;;3.30;99.90;;;;;;4996995;28;20033;-59
2024/01/12 00:41:52;;;;;;;23.67;9.93;;;3.30;99.90;;;;;;4989097;28;20046;-60
2024/01/12 00:44:18;;;;;;;21.90;10.00;;;3.30;99.90;;;;;;4986262;28;20027;-59
2024/01/12 00:46:50;;;;;;;22.92;9.57;;;3.30;99.90;;;;;;4990120;28;20030;-60
2024/01/12 00:49:19;;;;;;;21.23;8.75;;;3.30;99.90;;;;;;4989941;28;20539;-60
2024/01/12 00:51:45;;;;;;;21.27;8.48;;;3.40;99.90;;;;;;4992414;28;20500;-60
2024/01/12 00:54:11;;;;;;;19.20;8.52;;;3.40;99.90;;;;;;4991211;28;20084;-60
2024/01/12 00:56:37;;;;;;;18.95;8.15;;;3.40;99.90;;;;;;4993990;28;20746;-60
2024/01/12 00:59:04;;;;;;;17.92;8.07;;;3.30;99.90;;;;;;4993780;28;20065;-59
2024/01/12 01:01:30;;;;;;;19.52;8.65;;;3.40;99.90;;;;;;4993381;28;20042;-60
2024/01/12 01:03:55;;;;;;;20.38;9.07;;;3.30;99.90;;;;;;4987905;28;20088;-60
2024/01/12 01:06:21;;;;;;;18.33;9.00;;;3.30;99.90;;;;;;4989647;28;20084;-60
2024/01/12 01:08:48;;;;;;;18.38;7.82;;;3.40;99.90;;;;;;4988644;28;20766;-59
2024/01/12 01:11:14;;;;;;;19.48;8.48;;;3.40;99.90;;;;;;4992138;28;20034;-59
2024/01/12 01:13:40;;;;;;;22.40;8.05;;;3.40;99.90;;;;;;4991801;28;20034;-60
2024/01/12 01:16:06;;;;;;;21.30;8.35;;;3.40;99.90;;;;;;4984382;28;20553;-60
2024/01/12 01:18:32;;;;;;;20.40;8.23;;;3.40;99.90;;;;;;4965151;28;20034;-59
2024/01/12 01:20:58;;;;;;;21.98;8.60;;;3.40;99.90;;;;;;4988093;28;20061;-60
2024/01/12 01:23:24;;;;;;;18.58;8.07;;;3.40;99.90;;;;;;4982646;28;20026;-60
2024/01/12 01:25:50;;;;;;;19.63;8.88;;;3.40;99.90;;;;;;4984550;28;20045;-60
2024/01/12 01:28:16;;;;;;;22.52;9.13;;;3.40;99.90;;;;;;4989634;28;20041;-60
2024/01/12 01:30:42;;;;;;;21.88;8.52;;;3.40;99.90;;;;;;4986099;28;20031;-59
2024/01/12 01:33:08;;;;;;;19.15;8.50;;;3.40;99.90;;;;;;4982685;28;20044;-59
2024/01/12 01:35:34;;;;;;;24.92;8.77;;;3.40;99.90;;;;;;4983593;28;20035;-60
2024/01/12 01:38:00;;;;;;;23.05;8.15;;;3.40;99.90;;;;;;4991380;28;20132;-60
2024/01/12 01:40:25;;;;;;;21.55;8.00;;;3.40;99.90;;;;;;4991401;28;20080;-60
2024/01/12 01:42:51;;;;;;;17.63;7.70;;;3.40;99.90;;;;;;4989143;28;20611;-60
2024/01/12 01:45:17;;;;;;;21.52;9.32;;;3.40;99.90;;;;;;4992179;28;20018;-60
2024/01/12 01:47:45;;;;;;;19.23;7.95;;;3.40;99.90;;;;;;4990992;28;20540;-59
2024/01/12 01:50:13;;;;;;;29.50;9.35;;;3.40;99.90;;;;;;4998323;28;20026;-60
2024/01/12 01:52:39;;;;;;;26.70;9.20;;;3.30;99.90;;;;;;4995237;28;20068;-60
2024/01/12 01:55:06;;;;;;;22.23;9.50;;;3.40;99.90;;;;;;4993454;28;20045;-60
2024/01/12 01:57:34;;;;;;;19.73;8.15;;;3.30;99.90;;;;;;4994353;28;20781;-60
2024/01/12 02:00:00;;;;;;;20.35;8.82;;;3.30;99.90;;;;;;4994960;28;20050;-60
2024/01/12 02:02:26;;;;;;;18.58;7.75;;;3.30;99.90;;;;;;4990081;28;20114;-60
2024/01/12 02:04:54;;;;;;;22.63;9.05;;;3.30;99.90;;;;;;4994525;28;20046;-59
2024/01/12 02:07:20;;;;;;;23.75;9.40;;;3.40;99.90;;;;;;4991531;28;20415;-60
2024/01/12 02:09:47;;;;;;;22.30;8.70;;;3.30;99.90;;;;;;4998699;28;20025;-60
2024/01/12 02:12:12;;;;;;;23.33;9.32;;;3.40;99.90;;;;;;4993319;28;20034;-60
2024/01/12 02:14:38;;;;;;;21.92;8.73;;;3.30;99.90;;;;;;4995997;28;20038;-60
2024/01/12 02:17:04;;;;;;;23.75;8.95;;;3.40;99.90;;;;;;4990758;28;20030;-59
2024/01/12 02:19:30;;;;;;;19.27;8.13;;;3.40;99.90;;;;;;4995704;28;20026;-60
2024/01/12 02:21:55;;;;;;;21.80;8.10;;;3.30;99.90;;;;;;4994883;28;20038;-60
2024/01/12 02:24:21;;;;;;;24.48;9.15;;;3.40;99.90;;;;;;4991594;28;20046;-60
2024/01/12 02:26:47;;;;;;;21.92;8.68;;;3.40;99.90;;;;;;4999620;28;20034;-60
2024/01/12 02:29:13;;;;;;;19.88;8.35;;;3.30;99.90;;;;;;4996016;28;20036;-60
2024/01/12 02:31:39;;;;;;;18.98;7.90;;;3.40;99.90;;;;;;4999452;28;20025;-59
2024/01/12 02:34:05;;;;;;;18.10;7.97;;;3.40;99.90;;;;;;4990898;28;20675;-60
2024/01/12 02:36:31;;;;;;;17.88;8.40;;;3.40;99.90;;;;;;4994428;28;20026;-60
2024/01/12 02:38:56;;;;;;;22.88;9.73;;;3.40;99.90;;;;;;4990527;28;20142;-61
2024/01/12 02:41:22;;;;;;;23.13;9.75;;;3.40;99.90;;;;;;4995300;28;20775;-60
2024/01/12 02:43:48;;;;;;;28.65;9.98;;;3.40;99.90;;;;;;4996133;28;20045;-60
2024/01/12 02:46:14;;;;;;;21.83;8.82;;;3.40;99.90;;;;;;4995780;28;20651;-59
2024/01/12 02:48:39;;;;;;;17.23;7.97;;;3.40;99.90;;;;;;4988575;28;20034;-60
2024/01/12 02:51:06;;;;;;;19.80;8.40;;;3.30;99.90;;;;;;4991629;28;20038;-59
2024/01/12 02:53:32;;;;;;;20.75;8.82;;;3.30;99.90;;;;;;4991092;28;20593;-59
2024/01/12 02:55:58;;;;;;;26.45;8.90;;;3.40;99.90;;;;;;4987175;28;20045;-60
2024/01/12 02:58:24;;;;;;;19.33;9.32;;;3.30;99.90;;;;;;4988123;28;20034;-60
2024/01/12 03:00:52;;;;;;;16.92;7.38;;;3.30;99.90;;;;;;4991082;28;20041;-60
2024/01/12 03:03:18;;;;;;;16.38;7.45;;;3.30;99.90;;;;;;4989935;28;20109;-60
2024/01/12 03:05:44;;;;;;;23.55;8.75;;;3.30;99.90;;;;;;4987760;28;20030;-60
2024/01/12 03:08:10;;;;;;;19.85;7.57;;;3.30;99.90;;;;;;4987547;28;20034;-60
2024/01/12 03:10:37;;;;;;;19.63;7.70;;;3.30;99.90;;;;;;4994747;28;20034;-59
2024/01/12 03:13:03;;;;;;;17.30;8.30;;;3.30;99.90;;;;;;4997056;28;20435;-59
2024/01/12 03:15:29;;;;;;;18.92;7.85;;;3.30;99.90;;;;;;4994336;28;20080;-59
2024/01/12 03:17:56;;;;;;;14.90;7.30;;;3.30;99.90;;;;;;4996066;28;20033;-60
2024/01/12 03:20:22;;;;;;;18.98;7.50;;;3.30;99.90;;;;;;5002916;28;20041;-60
2024/01/12 03:22:48;;;;;;;20.10;8.45;;;3.20;99.90;;;;;;4994439;28;20039;-60
2024/01/12 03:25:14;;;;;;;14.65;6.38;;;3.30;99.90;;;;;;4988479;28;20037;-60
2024/01/12 03:27:39;;;;;;;17.15;7.70;;;3.30;99.90;;;;;;4993686;28;20034;-59
2024/01/12 03:30:06;;;;;;;17.20;6.80;;;3.30;99.90;;;;;;4991301;28;20117;-60
2024/01/12 03:32:33;;;;;;;13.88;6.57;;;3.30;99.90;;;;;;4993439;28;20693;-59
2024/01/12 03:34:59;;;;;;;15.73;7.55;;;3.30;99.90;;;;;;4988524;28;20062;-60
2024/01/12 03:37:25;;;;;;;19.90;7.15;;;3.30;99.90;;;;;;4990827;28;20037;-59
2024/01/12 03:39:51;;;;;;;17.27;6.88;;;3.30;99.90;;;;;;4987487;28;20506;-59
2024/01/12 03:42:17;;;;;;;18.60;7.35;;;3.30;99.90;;;;;;4990489;28;20133;-60
2024/01/12 03:44:43;;;;;;;16.90;7.47;;;3.30;99.90;;;;;;4991429;28;20029;-60
2024/01/12 03:47:08;;;;;;;17.58;7.32;;;3.30;99.90;;;;;;4991145;28;20061;-60
2024/01/12 03:49:34;;;;;;;16.23;7.63;;;3.30;99.90;;;;;;4988936;28;20735;-60
2024/01/12 03:52:00;;;;;;;18.45;7.57;;;3.30;99.90;;;;;;4991535;28;20033;-60
2024/01/12 03:54:26;;;;;;;14.38;6.63;;;3.30;99.90;;;;;;4983105;28;20029;-60
2024/01/12 03:56:52;;;;;;;16.27;6.80;;;3.30;99.90;;;;;;4989002;28;20486;-60
2024/01/12 03:59:18;;;;;;;19.92;7.72;;;3.30;99.90;;;;;;4986483;28;20062;-60
2024/01/12 04:01:45;;;;;;;15.98;6.90;;;3.30;99.90;;;;;;4989931;28;20040;-59
2024/01/12 04:04:11;;;;;;;12.75;6.20;;;3.30;99.90;;;;;;4990534;28;20042;-59
2024/01/12 04:06:38;;;;;;;14.45;6.57;;;3.30;99.90;;;;;;4990782;28;20030;-60
2024/01/12 04:09:03;;;;;;;16.27;6.45;;;3.30;99.90;;;;;;4989286;28;20964;-59
2024/01/12 04:11:29;;;;;;;14.43;6.50;;;3.30;99.90;;;;;;4992084;28;20125;-59
2024/01/12 04:13:55;;;;;;;14.90;6.78;;;3.30;99.90;;;;;;4993203;28;20115;-59
2024/01/12 04:16:21;;;;;;;16.85;6.78;;;3.30;99.90;;;;;;4990369;28;20022;-59
2024/01/12 04:18:47;;;;;;;13.13;6.15;;;3.30;99.90;;;;;;4993829;28;20057;-60
2024/01/12 04:21:13;;;;;;;15.48;6.68;;;3.30;99.90;;;;;;4993588;28;20053;-59
2024/01/12 04:23:39;;;;;;;18.55;7.28;;;3.40;99.90;;;;;;4992939;28;20038;-59
2024/01/12 04:26:06;;;;;;;21.55;6.88;;;3.30;99.90;;;;;;4987015;28;20034;-59
2024/01/12 04:28:32;;;;;;;16.08;6.90;;;3.30;99.90;;;;;;4995938;28;20143;-59
2024/01/12 04:31:00;;;;;;;15.05;5.88;;;3.30;99.90;;;;;;4990019;28;20030;-60
2024/01/12 04:33:26;;;;;;;14.50;6.35;;;3.30;99.90;;;;;;4988919;28;20109;-59
2024/01/12 04:35:51;;;;;;;15.80;6.75;;;3.30;99.90;;;;;;4986252;28;20640;-59
2024/01/12 04:38:17;;;;;;;14.18;6.65;;;3.30;99.90;;;;;;4992741;28;20125;-59
2024/01/12 04:40:43;;;;;;;14.43;6.18;;;3.20;99.90;;;;;;4987468;28;20038;-60
2024/01/12 04:43:09;;;;;;;13.35;5.45;;;3.20;99.90;;;;;;4991289;28;20077;-59
2024/01/12 04:45:34;;;;;;;12.25;6.20;;;3.20;99.90;;;;;;4993338;28;20121;-59
2024/01/12 04:48:00;;;;;;;11.73;5.53;;;3.00;99.90;;;;;;4996291;28;20041;-60
2024/01/12 04:50:26;;;;;;;12.40;5.32;;;3.00;99.90;;;;;;4993338;28;20033;-60
2024/01/12 04:52:52;;;;;;;11.32;5.85;;;3.00;99.90;;;;;;4986297;28;20042;-59
2024/01/12 04:55:18;;;;;;;17.35;6.90;;;2.90;99.90;;;;;;4987365;28;20040;-60
2024/01/12 04:57:44;;;;;;;12.77;6.38;;;2.90;99.90;;;;;;4985721;28;20038;-59
2024/01/12 05:00:10;;;;;;;15.25;6.50;;;2.90;99.90;;;;;;4990017;28;20046;-60
2024/01/12 05:02:36;;;;;;;18.02;6.57;;;2.90;99.90;;;;;;4992574;28;20393;-59
2024/01/12 05:05:07;;;;;;;15.35;6.82;;;2.90;99.90;;;;;;4990294;28;20038;-59
2024/01/12 05:07:33;;;;;;;13.32;5.82;;;2.80;99.90;;;;;;4985405;28;20073;-59
2024/01/12 05:09:58;;;;;;;16.38;6.53;;;2.80;99.90;;;;;;4990378;28;20443;-59
2024/01/12 05:12:25;;;;;;;13.68;6.25;;;2.90;99.90;;;;;;4986557;28;20022;-59
2024/01/12 05:14:51;;;;;;;12.00;5.35;;;2.80;99.90;;;;;;4995276;28;20088;-59
2024/01/12 05:17:17;;;;;;;13.50;5.30;;;2.80;99.90;;;;;;4991026;28;20437;-59
2024/01/12 05:19:43;;;;;;;12.27;5.63;;;2.90;99.90;;;;;;4989297;28;20220;-59
2024/01/12 05:22:09;;;;;;;13.13;5.45;;;2.90;99.90;;;;;;4993075;28;20144;-60
2024/01/12 05:24:34;;;;;;;13.40;5.88;;;2.90;99.90;;;;;;4993644;28;20023;-59
2024/01/12 05:27:00;;;;;;;17.35;6.18;;;2.90;99.90;;;;;;4988406;28;20114;-59
2024/01/12 05:29:26;;;;;;;15.23;6.53;;;3.00;99.90;;;;;;4994324;28;20038;-60
2024/01/12 05:31:52;;;;;;;14.65;6.38;;;2.90;99.90;;;;;;4989388;28;20045;-59
2024/01/12 05:34:17;;;;;;;15.10;7.10;;;2.90;99.90;;;;;;4992492;28;20093;-60
2024/01/12 05:36:43;;;;;;;17.40;7.03;;;2.90;99.90;;;;;;4989606;28;20045;-59
2024/01/12 05:39:10;;;;;;;17.02;6.22;;;2.90;99.90;;;;;;4992227;28;20508;-59
2024/01/12 05:41:36;;;;;;;13.70;5.95;;;2.90;99.90;;;;;;4993633;28;20048;-60
2024/01/12 05:44:02;;;;;;;14.98;6.50;;;2.90;99.90;;;;;;4993540;28;20041;-59
2024/01/12 05:46:27;;;;;;;16.35;6.68;;;2.90;99.90;;;;;;4991479;28;20034;-60
2024/01/12 05:48:53;;;;;;;14.95;6.78;;;3.00;99.90;;;;;;4994009;28;20371;-60
2024/01/12 05:51:20;;;;;;;16.15;6.78;;;3.00;99.90;;;;;;4990482;28;20121;-60
2024/01/12 05:53:45;;;;;;;14.38;6.10;;;3.00;99.90;;;;;;4991831;28;20064;-60
2024/01/12 05:56:11;;;;;;;14.68;6.90;;;3.00;99.90;;;;;;4994315;28;20057;-60
2024/01/12 05:58:37;;;;;;;17.35;7.70;;;3.00;99.90;;;;;;4995043;28;20033;-60
2024/01/12 06:01:03;;;;;;;19.08;7.10;;;3.00;99.90;;;;;;4992099;28;20870;-60
2024/01/12 06:03:29;;;;;;;16.10;7.60;;;3.10;99.90;;;;;;4993082;28;20438;-60
2024/01/12 06:05:55;;;;;;;14.52;6.22;;;3.10;99.90;;;;;;4989998;28;20839;-60
2024/01/12 06:08:21;;;;;;;15.55;6.72;;;3.10;99.90;;;;;;4993663;28;20022;-61
2024/01/12 06:10:47;;;;;;;12.75;6.10;;;3.10;99.90;;;;;;4996313;28;20469;-60
2024/01/12 06:13:13;;;;;;;17.55;7.40;;;3.10;99.90;;;;;;4994248;28;20046;-59
2024/01/12 06:15:39;;;;;;;17.63;7.18;;;3.10;99.90;;;;;;4995685;28;20057;-60
2024/01/12 06:18:05;;;;;;;22.77;7.75;;;3.10;99.90;;;;;;4994318;28;20458;-59
2024/01/12 06:20:31;;;;;;;19.63;7.97;;;3.20;99.90;;;;;;4993192;28;20027;-59
2024/01/12 06:22:57;;;;;;;18.15;7.20;;;3.10;99.90;;;;;;4991622;28;20034;-59
2024/01/12 06:25:23;;;;;;;18.45;7.10;;;3.20;99.90;;;;;;4989609;28;20501;-60
2024/01/12 06:27:49;;;;;;;18.65;7.15;;;3.10;99.90;;;;;;4992977;28;20045;-60
2024/01/12 06:30:16;;;;;;;18.88;6.53;;;3.10;99.90;;;;;;4994503;28;20038;-60
2024/01/12 06:32:43;;;;;;;16.55;6.45;;;3.10;99.90;;;;;;4997367;28;20041;-60
2024/01/12 06:35:10;;;;;;;14.68;6.20;;;3.10;99.90;;;;;;4997554;28;20030;-59
2024/01/12 06:37:37;;;;;;;16.98;6.13;;;3.10;99.90;;;;;;4994473;28;20038;-59
2024/01/12 06:40:04;;;;;;;16.42;6.60;;;3.10;99.90;;;;;;4990163;28;20039;-60
2024/01/12 06:42:31;;;;;;;19.27;6.72;;;3.10;99.90;;;;;;4998270;28;20081;-59
2024/01/12 06:44:57;;;;;;;13.43;5.45;;;3.20;99.90;;;;;;4995922;28;20484;-60
2024/01/12 06:47:23;;;;;;;14.88;5.57;;;3.20;99.90;;;;;;4994737;28;20026;-60
2024/01/12 06:49:48;;;;;;;13.95;4.90;;;3.20;99.90;;;;;;4996324;28;20027;-60
2024/01/12 06:52:14;;;;;;;10.07;4.72;;;3.20;99.90;;;;;;4997511;28;20034;-59
2024/01/12 06:54:46;;;;;;;10.15;4.72;;;3.20;99.90;;;;;;4992374;28;20037;-59
2024/01/12 06:57:11;;;;;;;10.77;4.45;;;3.20;99.90;;;;;;4992692;28;20042;-60
2024/01/12 06:59:37;;;;;;;10.75;4.95;;;3.20;99.90;;;;;;4997452;28;20037;-60
2024/01/12 07:02:03;;;;;;;13.73;4.75;;;3.20;99.90;;;;;;4995438;28;20064;-60
2024/01/12 07:04:29;;;;;;;12.15;5.65;;;3.20;99.90;;;;;;4994973;28;20069;-60
2024/01/12 07:06:55;;;;;;;10.02;4.55;;;3.20;99.90;;;;;;4993602;28;20058;-60
2024/01/12 07:09:20;;;;;;;10.75;4.38;;;3.20;99.90;;;;;;4993794;28;20481;-60
2024/01/12 07:11:46;;;;;;;8.95;4.43;;;3.20;99.90;;;;;;4995920;28;20067;-60
2024/01/12 07:14:15;;;;;;;12.23;4.82;;;3.20;99.90;;;;;;4990709;28;20041;-59
2024/01/12 07:16:41;;;;;;;8.00;3.97;;;3.20;99.90;;;;;;4990713;28;20042;-59
2024/01/12 07:19:07;;;;;;;8.80;4.40;;;3.20;99.90;;;;;;4973520;28;20045;-59
2024/01/12 07:21:34;;;;;;;9.85;4.97;;;3.20;99.90;;;;;;4986944;28;20031;-60
2024/01/12 07:24:00;;;;;;;10.15;4.57;;;3.20;99.90;;;;;;4992832;28;20034;-60
2024/01/12 07:26:26;;;;;;;12.82;5.78;;;3.30;99.90;;;;;;4993638;28;20632;-60
2024/01/12 07:28:52;;;;;;;10.52;5.10;;;3.30;99.90;;;;;;4996919;28;20034;-60
2024/01/12 07:31:18;;;;;;;9.32;4.53;;;3.30;99.90;;;;;;4990324;28;20052;-60
2024/01/12 07:33:44;;;;;;;10.90;3.72;;;3.20;99.90;;;;;;4989447;28;20049;-59
2024/01/12 07:36:10;;;;;;;8.63;4.15;;;3.30;99.90;;;;;;4986808;28;20038;-60
2024/01/12 07:38:36;;;;;;;9.13;4.72;;;3.30;99.90;;;;;;4986650;28;20030;-59
2024/01/12 07:41:01;;;;;;;10.68;4.38;;;3.30;99.90;;;;;;4992090;28;20041;-60
2024/01/12 07:43:27;;;;;;;13.35;5.78;;;3.20;99.90;;;;;;4985941;28;20090;-60
2024/01/12 07:45:53;;;;;;;11.30;6.18;;;3.30;99.90;;;;;;4989446;28;20037;-60
2024/01/12 07:48:20;;;;;;;11.27;4.78;;;3.30;99.90;;;;;;4989410;28;20030;-59
2024/01/12 07:50:46;;;;;;;11.57;5.20;;;3.30;99.90;;;;;;4989597;28;20022;-60
2024/01/12 07:53:11;;;;;;;26.17;10.68;;;3.30;99.90;;;;;;4994065;28;20039;-59
2024/01/12 07:55:37;;;;;;;19.13;9.35;;;3.40;99.90;;;;;;4989734;28;20461;-60
2024/01/12 07:58:03;;;;;;;25.17;10.18;;;3.40;99.90;;;;;;4995387;28;20042;-59
2024/01/12 08:00:29;;;;;;;78.57;26.77;;;3.40;99.90;;;;;;4989603;28;20022;-59
2024/01/12 08:02:55;;;;;;;40.17;19.38;;;3.30;99.90;;;;;;4996660;28;20034;-59
2024/01/12 08:05:22;;;;;;;20.38;12.45;;;3.40;99.90;;;;;;4993824;28;20121;-59
2024/01/12 08:07:48;;;;;;;15.23;7.78;;;3.30;99.90;;;;;;4988569;28;20030;-60
2024/01/12 08:10:15;;;;;;;12.40;6.15;;;3.30;99.90;;;;;;4983248;28;20037;-60
2024/01/12 08:12:41;;;;;;;27.25;15.07;;;3.30;99.90;;;;;;4993712;28;20025;-60
2024/01/12 08:15:10;;;;;;;23.70;14.45;;;3.40;99.90;;;;;;4994301;28;20046;-60
2024/01/12 08:17:38;;;;;;;21.50;11.70;;;3.30;99.90;;;;;;4987924;28;20486;-60
2024/01/12 08:20:04;;;;;;;13.05;6.85;;;3.30;99.90;;;;;;4985631;28;20041;-59
2024/01/12 08:22:32;;;;;;;12.02;5.00;;;3.30;99.90;;;;;;4993799;28;20061;-60
2024/01/12 08:24:58;;;;;;;13.20;6.60;;;3.40;99.90;;;;;;4992861;28;20088;-59
2024/01/12 08:27:23;;;;;;;29.90;12.85;;;3.40;99.90;;;;;;4988744;28;20044;-60
2024/01/12 08:29:49;;;;;;;21.67;8.68;;;3.40;99.90;;;;;;4989211;28;20777;-60
2024/01/12 08:32:15;;;;;;;10.32;5.13;;;3.40;99.90;;;;;;4991352;28;20038;-60
2024/01/12 08:34:41;;;;;;;14.55;6.43;;;3.40;99.90;;;;;;4991568;28;20299;-60
2024/01/12 08:37:07;;;;;;;11.57;6.32;;;3.40;99.90;;;;;;4992962;28;20201;-59
2024/01/12 08:39:33;;;;;;;28.38;15.13;;;3.50;99.90;;;;;;4995173;28;20595;-60
2024/01/12 08:41:59;;;;;;;23.50;11.00;;;3.50;99.90;;;;;;4992269;28;20397;-59
2024/01/12 08:44:25;;;;;;;15.40;9.10;;;3.50;99.90;;;;;;4993438;28;20044;-59
2024/01/12 08:46:53;;;;;;;15.13;8.25;;;3.50;99.90;;;;;;4995637;28;20042;-59
2024/01/12 08:49:22;;;;;;;11.52;5.97;;;3.60;99.90;;;;;;4991770;28;20034;-59
2024/01/12 08:51:48;;;;;;;13.63;6.15;;;3.50;99.90;;;;;;4992034;28;20030;-60
2024/01/12 08:54:14;;;;;;;16.40;6.90;;;3.50;99.90;;;;;;4992213;28;20038;-59
2024/01/12 08:56:41;;;;;;;22.13;9.45;;;3.50;99.90;;;;;;4994881;28;20037;-59
2024/01/12 08:59:08;;;;;;;14.90;5.90;;;3.60;99.90;;;;;;4990810;28;20076;-59
2024/01/12 09:01:34;;;;;;;12.02;5.78;;;3.30;99.90;;;;;;4993071;28;20065;-55
2024/01/12 09:04:01;;;;;;;14.82;7.50;;;3.10;99.90;;;;;;4986056;28;20065;-60
2024/01/12 09:06:27;;;;;;;16.30;6.38;;;3.10;99.90;;;;;;4987611;28;20054;-60
2024/01/12 09:08:56;;;;;;;16.50;7.30;;;3.10;99.90;;;;;;4992333;28;20033;-59
2024/01/12 09:11:22;;;;;;;12.52;4.72;;;3.20;99.90;;;;;;4992030;28;20030;-60
2024/01/12 09:13:48;;;;;;;13.25;5.68;;;3.10;99.90;;;;;;4989834;28;20064;-60
2024/01/12 09:16:15;;;;;;;19.25;9.10;;;3.10;99.90;;;;;;4983839;28;20034;-60
2024/01/12 09:18:43;;;;;;;29.73;15.25;;;2.80;99.90;;;;;;4988365;28;20028;-60
2024/01/12 09:21:14;;;;;;;21.25;10.93;;;2.50;99.90;;;;;;4985636;28;20084;-60
2024/01/12 09:23:41;;;;;;;30.23;20.20;;;2.30;99.90;;;;;;4992437;28;20036;-60
2024/01/12 09:26:08;;;;;;;23.23;13.13;;;2.30;99.90;;;;;;4992785;28;20422;-61
2024/01/12 09:28:34;;;;;;;23.70;12.57;;;2.30;99.90;;;;;;4990733;28;20066;-60
2024/01/12 09:31:00;;;;;;;38.25;19.52;;;2.40;99.90;;;;;;4991104;28;20120;-60
2024/01/12 09:33:25;;;;;;;22.88;10.75;;;2.60;99.90;;;;;;4988778;28;20054;-60
2024/01/12 09:35:51;;;;;;;17.90;8.00;;;2.70;99.90;;;;;;4988585;28;20588;-60
2024/01/12 09:38:17;;;;;;;18.33;9.55;;;2.80;99.90;;;;;;4983313;28;20515;-60
2024/01/12 09:40:43;;;;;;;20.17;9.90;;;2.90;99.90;;;;;;4989308;28;20038;-60
2024/01/12 09:43:13;;;;;;;18.00;10.07;;;2.90;99.90;;;;;;4989833;28;20869;-60
2024/01/12 09:45:43;;;;;;;26.08;10.85;;;3.10;99.90;;;;;;4986835;28;20022;-60
2024/01/12 09:48:10;;;;;;;18.42;9.20;;;3.10;99.90;;;;;;4988397;28;20500;-60
2024/01/12 09:50:35;;;;;;;16.55;7.55;;;3.10;99.90;;;;;;4991796;28;20034;-60
2024/01/12 09:53:01;;;;;;;10.45;5.88;;;3.10;99.90;;;;;;4987583;28;20045;-60
2024/01/12 09:55:27;;;;;;;14.13;5.90;;;3.10;99.90;;;;;;4988565;28;20501;-60
2024/01/12 09:57:54;;;;;;;10.48;4.55;;;3.10;99.90;;;;;;4989428;28;20046;-60
2024/01/12 10:00:24;;;;;;;15.75;5.78;;;2.90;99.90;;;;;;4989717;28;20056;-60
2024/01/12 10:02:50;;;;;;;13.68;6.32;;;2.90;99.90;;;;;;4991030;28;20212;-59
2024/01/12 10:05:15;;;;;;;15.05;6.07;;;2.90;99.90;;;;;;4992707;28;20101;-60
2024/01/12 10:07:41;;;;;;;17.90;6.45;;;3.00;99.90;;;;;;4992369;28;20042;-60
2024/01/12 10:10:08;;;;;;;18.95;7.88;;;2.90;99.90;;;;;;5002880;28;20018;-60
2024/01/12 10:12:34;;;;;;;17.50;7.45;;;2.90;99.90;;;;;;4991714;28;20038;-60
2024/01/12 10:15:01;;;;;;;12.82;5.72;;;2.90;99.90;;;;;;4992638;28;20107;-60
2024/01/12 10:17:27;;;;;;;8.07;4.68;;;3.00;99.90;;;;;;4993338;28;20030;-60
2024/01/12 10:19:53;;;;;;;10.68;5.18;;;2.90;99.90;;;;;;4997593;28;20061;-60
2024/01/12 10:22:19;;;;;;;12.60;5.47;;;3.00;99.90;;;;;;4988828;28;20073;-60
2024/01/12 10:24:45;;;;;;;11.88;5.55;;;3.00;99.90;;;;;;4986673;28;20494;-60
2024/01/12 10:27:13;;;;;;;12.15;5.82;;;3.00;99.90;;;;;;4994746;28;20030;-60
2024/01/12 10:29:39;;;;;;;14.25;5.60;;;3.00;99.90;;;;;;4987749;28;20033;-60
2024/01/12 10:32:05;;;;;;;13.32;5.82;;;2.90;99.90;;;;;;4993351;28;20520;-60
2024/01/12 10:34:33;;;;;;;13.82;6.28;;;2.90;99.90;;;;;;5000872;28;20060;-60
2024/01/12 10:37:02;;;;;;;13.63;6.03;;;2.90;99.90;;;;;;4986507;28;20038;-60
2024/01/12 10:39:30;;;;;;;14.82;5.63;;;3.00;99.90;;;;;;4994498;28;20126;-60
2024/01/12 10:42:00;;;;;;;16.25;9.15;;;3.00;99.90;;;;;;4986644;28;20104;-60
2024/01/12 10:44:29;;;;;;;21.85;10.15;;;3.10;99.90;;;;;;4989490;28;20026;-60
2024/01/12 10:47:05;;;;;;;22.50;9.35;;;3.10;99.90;;;;;;4983470;28;20399;-60
2024/01/12 10:49:47;;;;;;;18.23;8.07;;;3.10;99.90;;;;;;4988749;28;20490;-60
2024/01/12 10:52:21;;;;;;;69.97;21.20;;;2.90;99.90;;;;;;4988438;28;20049;-59
2024/01/12 10:55:00;;;;;;;25.80;9.90;;;2.90;99.90;;;;;;4989000;28;20042;-60
2024/01/12 10:57:26;;;;;;;39.13;13.20;;;2.80;99.90;;;;;;4988588;28;20968;-60
2024/01/12 10:59:53;;;;;;;140.25;43.00;;;2.90;99.90;;;;;;4993734;28;20410;-61
2024/01/12 11:02:20;;;;;;;57.67;20.52;;;2.90;99.90;;;;;;4997276;28;20038;-59
2024/01/12 11:04:46;;;;;;;30.77;11.63;;;2.90;99.90;;;;;;4992239;28;20034;-60
2024/01/12 11:07:14;;;;;;;28.27;11.45;;;2.80;99.90;;;;;;4988100;28;20038;-60
2024/01/12 11:09:40;;;;;;;42.42;17.75;;;2.80;99.90;;;;;;4994512;28;20034;-60
2024/01/12 11:12:12;;;;;;;65.75;28.15;;;2.80;99.90;;;;;;4988723;28;20030;-60
2024/01/12 11:14:40;;;;;;;33.63;11.88;;;2.70;99.90;;;;;;4993067;28;20034;-60
2024/01/12 11:17:06;;;;;;;52.78;16.50;;;2.50;99.90;;;;;;4992720;28;20570;-60
2024/01/12 11:19:33;;;;;;;29.45;12.25;;;2.50;99.90;;;;;;4983863;28;20426;-60
2024/01/12 11:22:02;;;;;;;28.00;11.95;;;2.30;99.90;;;;;;4986699;28;20476;-60
2024/01/12 11:24:29;;;;;;;23.48;10.25;;;2.20;99.90;;;;;;4991669;28;20042;-59
2024/01/12 11:26:55;;;;;;;13.95;6.88;;;2.10;99.90;;;;;;4988956;28;20041;-61
2024/01/12 11:29:21;;;;;;;25.08;9.07;;;2.20;99.90;;;;;;4990155;28;20041;-61
2024/01/12 11:31:53;;;;;;;21.73;9.30;;;2.30;99.90;;;;;;4991887;28;20030;-60
2024/01/12 11:34:19;;;;;;;88.30;47.38;;;2.40;99.90;;;;;;4997327;28;20026;-61
2024/01/12 11:36:45;;;;;;;23.65;10.85;;;2.50;99.90;;;;;;4990975;28;20580;-61
2024/01/12 11:39:12;;;;;;;13.10;5.90;;;2.50;99.90;;;;;;4995881;28;20091;-61
2024/01/12 11:41:44;;;;;;;15.73;5.82;;;2.70;99.90;;;;;;4995171;28;20570;-61
2024/01/12 11:44:10;;;;;;;16.42;7.55;;;2.60;99.90;;;;;;4988060;28;20034;-60
2024/01/12 11:46:36;;;;;;;17.33;5.60;;;2.60;99.90;;;;;;4994771;28;20136;-60
2024/01/12 11:49:04;;;;;;;16.17;5.43;;;2.70;99.90;;;;;;4987200;28;20093;-61
2024/01/12 11:51:30;;;;;;;14.07;6.00;;;2.70;99.90;;;;;;4993287;28;20038;-61
2024/01/12 11:53:58;;;;;;;18.65;7.82;;;2.80;99.90;;;;;;4990493;28;20038;-61
2024/01/12 11:56:26;;;;;;;34.72;14.77;;;2.90;99.90;;;;;;4994221;28;20022;-61
2024/01/12 11:58:52;;;;;;;45.15;18.27;;;2.80;99.90;;;;;;4987536;28;20541;-61
2024/01/12 12:01:19;;;;;;;23.30;9.20;;;2.60;99.90;;;;;;4991040;28;20034;-61
2024/01/12 12:03:45;;;;;;;19.73;8.88;;;2.60;99.90;;;;;;4984731;28;20477;-61
2024/01/12 12:06:12;;;;;;;19.67;7.68;;;2.60;99.90;;;;;;4987227;28;20487;-61
2024/01/12 12:08:41;;;;;;;23.38;7.75;;;2.50;99.90;;;;;;4990586;28;20038;-61
2024/01/12 12:11:07;;;;;;;20.50;9.82;;;2.40;99.90;;;;;;5004841;28;20042;-61
2024/01/12 12:13:37;;;;;;;18.58;6.32;;;2.50;99.90;;;;;;4990694;28;20033;-61
2024/01/12 12:16:03;;;;;;;15.02;5.50;;;2.50;99.90;;;;;;4986570;28;20410;-61
2024/01/12 12:18:33;;;;;;;15.60;6.95;;;2.60;99.90;;;;;;4990592;28;20105;-61
2024/01/12 12:21:01;;;;;;;15.18;6.60;;;2.60;99.90;;;;;;4995108;28;20045;-61
2024/01/12 12:23:28;;;;;;;15.07;7.30;;;2.60;99.90;;;;;;4996073;28;20143;-61
2024/01/12 12:25:54;;;;;;;17.23;8.07;;;2.70;99.90;;;;;;4993953;28;20046;-61
2024/01/12 12:28:24;;;;;;;19.13;6.80;;;2.50;99.90;;;;;;4988305;28;20050;-61
2024/01/12 12:30:53;;;;;;;18.60;8.73;;;2.50;99.90;;;;;;4988811;28;20485;-61
2024/01/12 12:33:23;;;;;;;19.48;9.23;;;2.50;99.90;;;;;;4989221;28;20145;-61
2024/01/12 12:36:00;;;;;;;16.52;8.20;;;2.40;99.90;;;;;;4985845;28;20097;-61
2024/01/12 12:38:26;;;;;;;18.10;8.73;;;2.50;99.90;;;;;;4988472;28;20034;-61
2024/01/12 12:40:51;;;;;;;20.08;7.15;;;2.50;99.90;;;;;;4993901;28;20513;-61